Ana Sayfa
METAR-TAF:

METAR-TAF

Havaalanları :

Manhattan, Kansas, Amerika Birleşik Devletleri

Enlem: 39-08-07N, Boylam: 096-40-40W, yükseklik: 321 m

Güncel hava durumu gözlemi

Rapor saat 16:52 UTC de 54 dakika önce yapıldı.
Rüzgar güney/güneybatıdan 12 kt ve 21 kt'a kadar ani rüzgarlar
Sıcaklık 28°C
Nem 66%
Basınç 1008 hPa
Görüş mesafesi: 16.1 km
Açık gökyüzü

METAR: KMHK 161652Z 20012G21KT 10SM CLR 28/21 A2977 RMK AO2 SLP070 T02780211

Saat: 12:46 (17:46 UTC)

Tahmin

Rapor saat 17:20 UTC de 26 dakika önce yapıldı.
Ayın 16'si saat 18 UTC'den ayın 17'si saat 18 UTC'ye kadar geçerli Tahmin
Rüzgar güneydan 12 kt ve 23 kt'a kadar ani rüzgarlar
Görüş mesafesi: 10 km
10000 ft yükseklikte parçalı bulutlu
Ayın 17'si saat 1400 UTC'den
Rüzgar güneydan 18 kt ve 32 kt'a kadar ani rüzgarlar
Görüş mesafesi: 10 km
25000 ft yükseklikte parçalı bulutlu

TAF: KMHK 161720Z 1618/1718 19012G23KT P6SM SCT100 FM171400 18018G32KT P6SM SCT250

4.000'den fazla havaalanı için hava durumu gözlemleri ve tahminleri (METAR ve TAF raporları).

Kullanılabilir istasyonlar harita üzerinde sarı ve kırmızı noktalarla gösterilir.

İstasyonun adını görmek için fareyi noktanın üzerinde gezdirin.

Sonrasında hava gözlem ve tahminlerini görmek için tıklayın.

Haritayı değiştirmek için: yaklaştırmak için siyah artı işaretli yeşil düğmeye ve uzaklaştırmak için de eksi işaretli düğmeye hızla tıklayın; bitişik haritalar için yeşil okları kullanın.


METAR-TAF: